Terminal Aerodrome Forecast
Issued by NWS Blacksburg, VA

Home | Current Version | Previous Version | Text Only | Print | Product List | Glossary On
Versions: 1 2 3 4 5 6 7 8 9 10 11 12 13 14 15 16 17 18 19 20 21 22 23 24 25 26 27 28 29 30
000
FTUS41 KRNK 301139
TAFDAN
TAF
KDAN 301139Z 3012/0112 07008KT 5SM BR OVC004
     FM301600 08007KT 6SM BR OVC007
     FM010300 09008G16KT 5SM -SHRA BR OVC009
     FM010600 10008G16KT 4SM SHRA BR BKN009 OVC012=

USA.gov is the U.S. government's official web portal to all federal, state and local government web resources and services.